Main page
METAR-TAF:

METAR-TAF

Airports :

Larnaca International Airport

Larnaca, Cyprus

latitude: 34-53N, longitude: 033-38E, elevation: 2 m

Current weather observation

The report was made 17 minutes ago, at 21:00 UTC
Wind 6 kt from the East/Southeast, varying between East and Southeast
Temperature 24°C
Humidity 89%
Pressure 1010 hPa
Visibility 10 km or more
no clouds below 1500 m and no cumulonimbus

METAR: LCLK 202100Z 12006KT 080V140 CAVOK 24/22 Q1010 NOSIG

Time: 00:17 (21:17 UTC)

Forecast

The report was made 3 hours and 47 minutes ago, at 17:30 UTC
Forecast valid from 20 at 18 UTC to 21 at 18 UTC
Wind 8 kt from the North/Northwest
Visibility 10 km or more
Few clouds at a height of 2500 ft
Becoming
from 21 at 07 UTC to 21 at 11 UTC
Wind 14 kt from the South/Southwest

TAF: LCLK 201730Z 2018/2118 33008KT 9999 FEW025 BECMG 2107/2111 21014KT

Weather observations and forecasts of more than 4000 airports (METAR and TAF reports).

The available stations are represented by yellow and red dots on the map.

Hover mouse over dot to see the name of the station.

Then click to see weather observations and forecasts.

To change the map : click on the green buttons with a black cross to zoom in, on the green button with a dash to zoom out, or on the green arrows for adjacent maps.


METAR-TAF: